createdAt,value
2023-04-15T00:01:27.262Z,99.90
2023-04-15T00:03:55.911Z,99.90
2023-04-15T00:06:23.714Z,99.90
2023-04-15T00:08:50.746Z,99.90
2023-04-15T00:11:18.467Z,99.90
2023-04-15T00:13:46.000Z,99.90
2023-04-15T00:16:13.351Z,99.90
2023-04-15T00:18:40.719Z,99.90
2023-04-15T00:21:08.936Z,99.90
2023-04-15T00:23:36.782Z,99.90
2023-04-15T00:26:04.284Z,99.90
2023-04-15T00:28:32.106Z,99.90
2023-04-15T00:30:59.543Z,99.90
2023-04-15T00:33:27.126Z,99.90
2023-04-15T00:35:54.877Z,99.90
2023-04-15T00:38:21.934Z,99.90
2023-04-15T00:40:49.692Z,99.90
2023-04-15T00:43:17.530Z,99.90
2023-04-15T00:45:44.985Z,99.90
2023-04-15T00:48:14.349Z,99.90
2023-04-15T00:50:41.738Z,99.90
2023-04-15T00:53:08.776Z,99.90
2023-04-15T00:55:37.463Z,99.90
2023-04-15T00:58:04.816Z,99.90
2023-04-15T01:00:32.253Z,99.90
2023-04-15T01:03:00.441Z,99.90
2023-04-15T01:05:30.173Z,99.90
2023-04-15T01:07:57.521Z,99.90
2023-04-15T01:10:25.014Z,99.90
2023-04-15T01:12:52.452Z,99.90
2023-04-15T01:15:21.312Z,99.90
2023-04-15T01:17:49.054Z,99.90
2023-04-15T01:20:16.913Z,99.90
2023-04-15T01:22:45.281Z,99.90
2023-04-15T01:25:20.218Z,99.90
2023-04-15T01:27:47.600Z,99.90
2023-04-15T01:30:15.545Z,99.90
2023-04-15T01:32:42.977Z,99.90
2023-04-15T01:35:10.514Z,99.90
2023-04-15T01:37:38.006Z,99.90
2023-04-15T01:40:06.507Z,99.90
2023-04-15T01:42:36.496Z,99.90
2023-04-15T01:45:05.254Z,99.90
2023-04-15T01:47:32.417Z,99.90
2023-04-15T01:49:59.744Z,99.90
2023-04-15T01:52:28.766Z,99.90
2023-04-15T01:54:57.984Z,99.90
2023-04-15T01:57:25.160Z,99.90
2023-04-15T01:59:52.480Z,99.90
2023-04-15T02:02:19.622Z,99.90
2023-04-15T02:04:47.028Z,99.90
2023-04-15T02:07:14.312Z,99.90
2023-04-15T02:09:42.034Z,99.90
2023-04-15T02:12:09.607Z,99.90
2023-04-15T02:14:37.182Z,99.90
2023-04-15T02:17:08.296Z,99.90
2023-04-15T02:19:36.461Z,99.90
2023-04-15T02:22:03.923Z,99.90
2023-04-15T02:24:31.608Z,99.90
2023-04-15T02:26:58.733Z,99.90
2023-04-15T02:29:26.147Z,99.90
2023-04-15T02:31:53.274Z,99.90
2023-04-15T02:34:21.399Z,99.90
2023-04-15T02:36:49.656Z,99.90
2023-04-15T02:39:18.574Z,99.90
2023-04-15T02:41:51.730Z,99.90
2023-04-15T02:44:23.558Z,99.90
2023-04-15T02:46:54.814Z,99.90
2023-04-15T02:49:22.931Z,99.90
2023-04-15T02:51:51.294Z,99.90
2023-04-15T02:54:22.925Z,99.90
2023-04-15T02:56:50.663Z,99.90
2023-04-15T02:59:18.018Z,99.90
2023-04-15T03:01:45.525Z,99.90
2023-04-15T03:04:13.710Z,99.90
2023-04-15T03:06:41.412Z,99.90
2023-04-15T03:09:10.318Z,99.90
2023-04-15T03:11:40.717Z,99.90
2023-04-15T03:14:09.884Z,99.90
2023-04-15T03:16:40.761Z,99.90
2023-04-15T03:19:08.238Z,99.90
2023-04-15T03:21:35.436Z,99.90
2023-04-15T03:24:03.508Z,99.90
2023-04-15T03:26:32.191Z,99.90
2023-04-15T03:29:06.762Z,99.90
2023-04-15T03:31:34.312Z,99.90
2023-04-15T03:34:02.314Z,99.90
2023-04-15T03:36:32.993Z,99.90
2023-04-15T03:39:03.398Z,99.90
2023-04-15T03:41:30.866Z,99.90
2023-04-15T03:43:58.297Z,99.90
2023-04-15T03:46:25.641Z,99.90
2023-04-15T03:48:52.983Z,99.90
2023-04-15T03:51:20.596Z,99.90
2023-04-15T03:53:47.887Z,99.90
2023-04-15T03:56:14.977Z,99.90
2023-04-15T03:58:42.343Z,99.90
2023-04-15T04:01:09.445Z,99.90
2023-04-15T04:03:37.966Z,99.90
2023-04-15T04:06:05.380Z,99.90
2023-04-15T04:08:32.647Z,99.90
2023-04-15T04:10:59.800Z,99.90
2023-04-15T04:13:27.144Z,99.90
2023-04-15T04:15:54.213Z,99.90
2023-04-15T04:18:22.687Z,99.90
2023-04-15T04:20:49.812Z,99.90
2023-04-15T04:23:17.244Z,99.90
2023-04-15T04:25:44.235Z,99.90
2023-04-15T04:28:11.692Z,99.90
2023-04-15T04:30:38.822Z,99.90
2023-04-15T04:33:07.366Z,99.90
2023-04-15T04:35:37.497Z,99.90
2023-04-15T04:38:04.920Z,99.90
2023-04-15T04:40:32.105Z,99.90
2023-04-15T04:42:59.937Z,99.90
2023-04-15T04:45:52.046Z,99.90
2023-04-15T04:48:19.879Z,99.90
2023-04-15T04:50:47.101Z,99.90
2023-04-15T04:53:15.363Z,99.90
2023-04-15T04:55:42.492Z,99.90
2023-04-15T04:58:09.844Z,99.90
2023-04-15T05:00:38.457Z,99.90
2023-04-15T05:03:06.340Z,99.90
2023-04-15T05:05:34.107Z,99.90
2023-04-15T05:08:01.532Z,99.90
2023-04-15T05:10:28.674Z,99.90
2023-04-15T05:12:56.013Z,99.90
2023-04-15T05:15:23.061Z,99.90
2023-04-15T05:17:50.440Z,99.90
2023-04-15T05:20:18.100Z,99.90
2023-04-15T05:22:45.688Z,99.90
2023-04-15T05:25:12.971Z,99.90
2023-04-15T05:27:40.475Z,99.90
2023-04-15T05:30:08.833Z,99.90
2023-04-15T05:32:36.833Z,99.90
2023-04-15T05:35:04.291Z,99.90
2023-04-15T05:37:31.686Z,99.90
2023-04-15T05:39:58.754Z,99.90
2023-04-15T05:42:26.299Z,99.90
2023-04-15T05:44:53.402Z,99.90
2023-04-15T05:47:21.474Z,99.90
2023-04-15T05:49:48.552Z,99.90
2023-04-15T05:52:16.578Z,99.90
2023-04-15T05:54:44.107Z,99.90
2023-04-15T05:57:11.605Z,99.90
2023-04-15T05:59:38.860Z,99.90
2023-04-15T06:02:07.604Z,99.90
2023-04-15T06:04:35.114Z,99.90
2023-04-15T06:07:02.609Z,99.90
2023-04-15T06:09:29.825Z,99.90
2023-04-15T06:11:57.673Z,99.90
2023-04-15T06:14:24.863Z,99.90
2023-04-15T06:16:52.434Z,99.90
2023-04-15T06:19:20.303Z,99.90
2023-04-15T06:21:47.770Z,99.90
2023-04-15T06:24:14.903Z,99.90
2023-04-15T06:26:42.222Z,99.90
2023-04-15T06:29:09.280Z,99.90
2023-04-15T06:31:37.394Z,99.90
2023-04-15T06:34:04.421Z,99.90
2023-04-15T06:36:32.397Z,99.90
2023-04-15T06:38:59.796Z,99.90
2023-04-15T06:41:27.290Z,99.90
2023-04-15T06:43:54.517Z,99.90
2023-04-15T06:46:22.381Z,99.90
2023-04-15T06:48:49.452Z,99.90
2023-04-15T06:51:16.996Z,99.90
2023-04-15T06:53:44.363Z,99.90
2023-04-15T06:56:11.846Z,99.90
2023-04-15T06:58:38.864Z,99.90
2023-04-15T07:01:06.668Z,99.90
2023-04-15T07:03:33.991Z,99.90
2023-04-15T07:06:06.150Z,99.90
2023-04-15T07:08:33.883Z,99.90
2023-04-15T07:11:01.634Z,99.90
2023-04-15T07:13:32.427Z,99.90
2023-04-15T07:15:59.887Z,99.90
2023-04-15T07:18:26.915Z,99.90
2023-04-15T07:20:54.317Z,99.90
2023-04-15T07:23:21.394Z,99.90
2023-04-15T07:25:49.432Z,99.90
2023-04-15T07:28:16.675Z,99.90
2023-04-15T07:30:44.152Z,99.90
2023-04-15T07:33:12.203Z,99.90
2023-04-15T07:35:39.666Z,99.90
2023-04-15T07:38:06.860Z,99.90
2023-04-15T07:40:34.258Z,99.90
2023-04-15T07:43:02.370Z,99.90
2023-04-15T07:45:30.040Z,99.90
2023-04-15T07:47:57.331Z,99.90
2023-04-15T07:50:24.952Z,99.90
2023-04-15T07:52:52.411Z,99.90
2023-04-15T07:55:21.710Z,99.90
2023-04-15T07:57:50.103Z,99.90
2023-04-15T08:00:18.273Z,99.90
2023-04-15T08:02:46.901Z,99.90
2023-04-15T08:05:15.192Z,99.90
2023-04-15T08:07:42.344Z,99.90
2023-04-15T08:10:10.084Z,99.90
2023-04-15T08:12:37.399Z,99.90
2023-04-15T08:15:05.763Z,99.90
2023-04-15T08:17:33.497Z,99.90
2023-04-15T08:20:01.036Z,99.90
2023-04-15T08:22:28.620Z,99.90
2023-04-15T08:24:56.455Z,99.90
2023-04-15T08:27:23.598Z,99.90
2023-04-15T08:29:50.903Z,99.90
2023-04-15T08:32:19.051Z,99.90
2023-04-15T08:34:46.647Z,99.90
2023-04-15T08:37:13.674Z,99.90
2023-04-15T08:39:41.086Z,99.90
2023-04-15T08:42:17.370Z,99.90
2023-04-15T08:44:46.436Z,99.90
2023-04-15T08:47:17.569Z,99.90
2023-04-15T08:49:45.312Z,99.90
2023-04-15T08:52:12.684Z,99.90
2023-04-15T08:54:40.547Z,99.90
2023-04-15T08:57:07.947Z,99.90
2023-04-15T08:59:36.344Z,99.90
2023-04-15T09:02:06.204Z,99.90
2023-04-15T09:04:34.482Z,99.90
2023-04-15T09:07:02.101Z,99.90
2023-04-15T09:09:29.720Z,99.90
2023-04-15T09:11:56.874Z,99.90
2023-04-15T09:14:24.319Z,99.90
2023-04-15T09:17:03.518Z,99.90
2023-04-15T09:19:33.460Z,99.90
2023-04-15T09:22:01.284Z,99.90
2023-04-15T09:24:42.275Z,99.90
2023-04-15T09:27:09.934Z,99.90
2023-04-15T09:29:37.424Z,97.60
2023-04-15T09:32:15.971Z,96.60
2023-04-15T09:34:44.419Z,96.00
2023-04-15T09:37:20.716Z,99.90
2023-04-15T09:39:58.951Z,99.40
2023-04-15T09:42:26.918Z,99.90
2023-04-15T09:44:54.528Z,96.20
2023-04-15T09:47:32.612Z,99.90
2023-04-15T09:50:02.493Z,99.90
2023-04-15T09:52:30.875Z,95.00
2023-04-15T09:55:00.200Z,98.50
2023-04-15T09:57:36.660Z,94.40
2023-04-15T10:00:06.605Z,97.60
2023-04-15T10:02:37.743Z,98.20
2023-04-15T10:05:07.253Z,97.90
2023-04-15T10:07:35.217Z,98.90
2023-04-15T10:10:05.287Z,99.20
2023-04-15T10:12:33.505Z,98.50
2023-04-15T10:15:05.498Z,98.90
2023-04-15T10:17:35.551Z,99.60
2023-04-15T10:20:05.308Z,94.20
2023-04-15T10:22:33.252Z,99.00
2023-04-15T10:25:04.276Z,94.80
2023-04-15T10:27:31.867Z,94.40
2023-04-15T10:30:03.655Z,98.10
2023-04-15T10:32:31.942Z,98.40
2023-04-15T10:35:00.668Z,98.60
2023-04-15T10:37:38.661Z,97.80
2023-04-15T10:40:32.616Z,96.50
2023-04-15T10:43:03.011Z,98.90
2023-04-15T10:45:37.160Z,96.50
2023-04-15T10:48:08.468Z,98.20
2023-04-15T10:50:37.796Z,99.90
2023-04-15T10:53:06.699Z,98.20
2023-04-15T10:55:34.921Z,99.90
2023-04-15T10:58:03.274Z,99.90
2023-04-15T11:00:32.978Z,99.90
2023-04-15T11:03:07.423Z,99.90
2023-04-15T11:05:41.315Z,99.90
2023-04-15T11:08:10.610Z,99.90
2023-04-15T11:10:37.931Z,99.90
2023-04-15T11:13:11.350Z,99.90
2023-04-15T11:15:47.403Z,99.90
2023-04-15T11:18:30.614Z,99.90
2023-04-15T11:21:05.209Z,99.90
2023-04-15T11:23:39.324Z,97.40
2023-04-15T11:26:11.879Z,99.10
2023-04-15T11:28:44.853Z,97.70
2023-04-15T11:31:19.980Z,98.20
2023-04-15T11:34:02.519Z,99.50
2023-04-15T11:36:31.983Z,99.60
2023-04-15T11:39:00.405Z,99.90
2023-04-15T11:41:28.288Z,99.90
2023-04-15T11:43:56.034Z,99.90
2023-04-15T11:46:31.676Z,99.90
2023-04-15T11:49:00.024Z,99.80
2023-04-15T11:51:32.543Z,97.50
2023-04-15T11:53:59.609Z,95.00
2023-04-15T11:56:27.568Z,99.30
2023-04-15T11:58:59.900Z,96.60
2023-04-15T12:01:41.260Z,99.00
2023-04-15T12:04:22.552Z,95.10
2023-04-15T12:06:52.579Z,98.80
2023-04-15T12:09:20.406Z,94.20
2023-04-15T12:11:51.349Z,97.40
2023-04-15T12:14:25.995Z,94.60
2023-04-15T12:17:02.888Z,94.40
2023-04-15T12:19:42.965Z,97.40
2023-04-15T12:22:11.458Z,96.90
2023-04-15T12:24:39.865Z,94.10
2023-04-15T12:27:10.946Z,92.90
2023-04-15T12:29:40.988Z,94.80
2023-04-15T12:32:09.910Z,96.70
2023-04-15T12:34:39.133Z,96.70
2023-04-15T12:37:09.880Z,93.60
2023-04-15T12:39:40.632Z,93.60
2023-04-15T12:42:09.500Z,93.70
2023-04-15T12:44:38.224Z,94.60
2023-04-15T12:47:08.251Z,94.30
2023-04-15T12:49:35.558Z,95.40
2023-04-15T12:52:03.975Z,94.10
2023-04-15T12:54:32.035Z,95.70
2023-04-15T12:57:00.826Z,94.30
2023-04-15T12:59:29.134Z,96.70
2023-04-15T13:01:56.973Z,94.90
2023-04-15T13:04:24.305Z,95.00
2023-04-15T13:06:51.775Z,95.10
2023-04-15T13:09:18.982Z,94.20
2023-04-15T13:11:46.380Z,97.10
2023-04-15T13:14:13.491Z,93.30
2023-04-15T13:16:41.748Z,93.00
2023-04-15T13:19:09.275Z,96.00
2023-04-15T13:21:36.668Z,94.00
2023-04-15T13:24:05.255Z,93.30
2023-04-15T13:26:32.855Z,94.30
2023-04-15T13:29:01.179Z,94.00
2023-04-15T13:31:28.713Z,96.20
2023-04-15T13:33:57.506Z,94.10
2023-04-15T13:36:24.940Z,94.60
2023-04-15T13:38:52.058Z,93.60
2023-04-15T13:41:21.070Z,93.90
2023-04-15T13:43:48.109Z,94.90
2023-04-15T13:46:15.586Z,94.20
2023-04-15T13:48:42.687Z,94.50
2023-04-15T13:51:10.018Z,94.60
2023-04-15T13:53:38.802Z,93.50
2023-04-15T13:56:08.288Z,95.80
2023-04-15T13:58:36.474Z,93.40
2023-04-15T14:01:05.755Z,94.30
2023-04-15T14:03:35.870Z,92.70
2023-04-15T14:06:04.337Z,93.10
2023-04-15T14:08:31.682Z,95.10
2023-04-15T14:10:59.020Z,93.90
2023-04-15T14:13:26.116Z,92.80
2023-04-15T14:15:53.557Z,92.40
2023-04-15T14:18:20.707Z,94.00
2023-04-15T14:20:48.101Z,94.20
2023-04-15T14:23:15.270Z,92.60
2023-04-15T14:25:42.660Z,92.80
2023-04-15T14:28:09.712Z,94.10
2023-04-15T14:30:37.289Z,94.20
2023-04-15T14:33:05.318Z,94.30
2023-04-15T14:35:32.857Z,92.80
2023-04-15T14:37:59.915Z,94.60
2023-04-15T14:40:27.331Z,95.50
2023-04-15T14:42:54.431Z,94.20
2023-04-15T14:45:21.715Z,92.90
2023-04-15T14:47:48.860Z,93.70
2023-04-15T14:50:18.108Z,95.50
2023-04-15T14:52:45.586Z,94.30
2023-04-15T14:55:13.667Z,94.20
2023-04-15T14:57:42.613Z,96.70
2023-04-15T15:00:13.810Z,94.90
2023-04-15T15:02:43.741Z,93.70
2023-04-15T15:05:12.221Z,96.40
2023-04-15T15:07:40.855Z,93.60
2023-04-15T15:10:08.846Z,94.70
2023-04-15T15:12:36.308Z,95.80
2023-04-15T15:15:12.415Z,96.40
2023-04-15T15:17:47.185Z,96.00
2023-04-15T15:20:14.544Z,97.20
2023-04-15T15:22:41.622Z,97.50
2023-04-15T15:25:09.412Z,98.30
2023-04-15T15:27:38.303Z,98.50
2023-04-15T15:30:06.798Z,98.40
2023-04-15T15:32:34.323Z,99.10
2023-04-15T15:35:01.875Z,97.60
2023-04-15T15:37:31.503Z,98.90
2023-04-15T15:39:59.621Z,98.00
2023-04-15T15:42:26.936Z,97.90
2023-04-15T15:44:54.316Z,97.40
2023-04-15T15:47:22.470Z,97.60
2023-04-15T15:49:49.976Z,97.40
2023-04-15T15:52:17.117Z,97.60
2023-04-15T15:54:44.508Z,98.00
2023-04-15T15:57:11.732Z,97.90
2023-04-15T15:59:43.607Z,98.00
2023-04-15T16:02:13.429Z,98.10
2023-04-15T16:04:43.097Z,98.10
2023-04-15T16:07:15.706Z,98.40
2023-04-15T16:09:43.669Z,98.60
2023-04-15T16:12:10.917Z,98.80
2023-04-15T16:14:39.109Z,98.80
2023-04-15T16:17:06.258Z,99.10
2023-04-15T16:19:33.604Z,99.20
2023-04-15T16:22:01.831Z,99.30
2023-04-15T16:24:29.808Z,99.50
2023-04-15T16:26:59.224Z,99.60
2023-04-15T16:29:27.090Z,99.70
2023-04-15T16:31:55.832Z,99.90
2023-04-15T16:45:56.760Z,99.50
2023-04-15T16:48:24.532Z,99.90
2023-04-15T16:50:51.558Z,99.90
2023-04-15T16:53:19.035Z,99.90
2023-04-15T16:55:46.220Z,99.90
2023-04-15T16:58:13.700Z,99.90
2023-04-15T17:00:40.891Z,99.90
2023-04-15T17:03:08.696Z,99.90
2023-04-15T17:05:36.059Z,99.90
2023-04-15T17:08:04.528Z,99.90
2023-04-15T17:10:31.694Z,99.90
2023-04-15T17:12:59.821Z,99.90
2023-04-15T17:15:27.453Z,99.90
2023-04-15T17:17:55.370Z,99.90
2023-04-15T17:20:22.517Z,99.90
2023-04-15T17:22:50.105Z,99.90
2023-04-15T17:25:17.621Z,99.90
2023-04-15T17:27:45.212Z,99.90
2023-04-15T17:30:12.475Z,99.90
2023-04-15T17:32:40.436Z,99.90
2023-04-15T17:35:08.400Z,99.90
2023-04-15T17:37:36.213Z,99.90
2023-04-15T17:40:07.318Z,99.90
2023-04-15T17:42:36.299Z,99.90
2023-04-15T17:45:03.747Z,99.90
2023-04-15T17:47:31.172Z,99.90
2023-04-15T17:49:58.350Z,99.90
2023-04-15T17:52:25.817Z,99.90
2023-04-15T17:54:52.976Z,99.90
2023-04-15T17:57:20.581Z,99.90
2023-04-15T17:59:48.347Z,99.90
2023-04-15T18:02:15.901Z,99.90
2023-04-15T18:04:43.856Z,99.90
2023-04-15T18:07:11.596Z,99.90
2023-04-15T18:09:38.976Z,99.90
2023-04-15T18:12:07.627Z,99.90
2023-04-15T18:14:36.185Z,99.90
2023-04-15T18:17:03.861Z,99.90
2023-04-15T18:19:31.736Z,99.90
2023-04-15T18:22:00.285Z,99.90
2023-04-15T18:24:28.481Z,99.90
2023-04-15T18:26:56.617Z,99.90
2023-04-15T18:29:24.018Z,99.90
2023-04-15T18:31:52.484Z,99.90
2023-04-15T18:34:19.841Z,99.90
2023-04-15T18:36:47.633Z,99.90
2023-04-15T18:39:15.275Z,99.90
2023-04-15T18:41:42.958Z,99.90
2023-04-15T18:44:10.200Z,99.90
2023-04-15T18:46:38.031Z,99.90
2023-04-15T18:49:06.683Z,99.90
2023-04-15T18:51:34.680Z,99.90
2023-04-15T18:54:02.946Z,99.90
2023-04-15T18:56:31.373Z,99.90
2023-04-15T18:59:19.391Z,99.90
2023-04-15T19:01:46.628Z,99.90
2023-04-15T19:04:14.230Z,99.90
2023-04-15T19:06:41.877Z,99.90
2023-04-15T19:09:09.126Z,99.90
2023-04-15T19:11:36.752Z,99.90
2023-04-15T19:14:05.034Z,99.90
2023-04-15T19:16:32.539Z,99.90
2023-04-15T19:18:59.724Z,99.90
2023-04-15T19:21:27.866Z,99.90
2023-04-15T19:23:57.325Z,99.90
2023-04-15T19:26:24.702Z,99.90
2023-04-15T19:28:53.736Z,99.90
2023-04-15T19:31:21.320Z,99.90
2023-04-15T19:33:48.446Z,99.90
2023-04-15T19:36:15.962Z,99.90
2023-04-15T19:38:43.135Z,99.90
2023-04-15T19:41:11.093Z,99.90
2023-04-15T19:43:38.280Z,99.90
2023-04-15T19:46:07.297Z,99.90
2023-04-15T19:48:34.355Z,99.90
2023-04-15T19:51:01.799Z,99.90
2023-04-15T19:53:29.439Z,99.90
2023-04-15T19:55:57.247Z,99.90
2023-04-15T19:58:24.432Z,99.90
2023-04-15T20:00:52.030Z,99.90
2023-04-15T20:03:19.628Z,99.90
2023-04-15T20:05:47.172Z,99.90
2023-04-15T20:08:14.329Z,99.90
2023-04-15T20:10:41.774Z,99.90
2023-04-15T20:13:09.004Z,99.90
2023-04-15T20:15:36.548Z,99.90
2023-04-15T20:18:03.957Z,99.90
2023-04-15T20:20:31.490Z,99.90
2023-04-15T20:22:58.631Z,99.90
2023-04-15T20:25:26.227Z,99.90
2023-04-15T20:27:53.298Z,99.90
2023-04-15T20:30:20.962Z,99.90
2023-04-15T20:32:48.152Z,99.90
2023-04-15T20:35:15.867Z,99.90
2023-04-15T20:37:45.001Z,99.90
2023-04-15T20:40:14.127Z,99.90
2023-04-15T20:42:43.556Z,99.90
2023-04-15T20:45:11.415Z,99.90
2023-04-15T20:47:38.631Z,99.90
2023-04-15T20:50:06.971Z,99.90
2023-04-15T20:52:34.116Z,99.90
2023-04-15T20:55:01.553Z,99.90
2023-04-15T20:57:30.127Z,99.90
2023-04-15T20:59:57.616Z,99.90
2023-04-15T21:02:25.299Z,99.90
2023-04-15T21:04:52.845Z,99.90
2023-04-15T21:07:20.009Z,99.90
2023-04-15T21:09:47.392Z,99.90
2023-04-15T21:12:14.425Z,99.90
2023-04-15T21:14:41.829Z,99.90
2023-04-15T21:17:11.173Z,99.90
2023-04-15T21:19:40.302Z,99.90
2023-04-15T21:22:07.606Z,99.90
2023-04-15T21:24:35.039Z,99.90
2023-04-15T21:27:03.004Z,99.90
2023-04-15T21:29:30.562Z,99.90
2023-04-15T21:31:57.714Z,99.90
2023-04-15T21:34:25.142Z,99.90
2023-04-15T21:36:52.331Z,99.90
2023-04-15T21:39:19.676Z,99.90
2023-04-15T21:41:46.797Z,99.90
2023-04-15T21:44:15.118Z,99.90
2023-04-15T21:46:45.995Z,99.90
2023-04-15T21:49:14.065Z,99.90
2023-04-15T21:51:41.085Z,99.90
2023-04-15T21:54:08.613Z,99.90
2023-04-15T21:56:36.912Z,99.90
2023-04-15T21:59:05.271Z,99.90
2023-04-15T22:01:32.489Z,99.90
2023-04-15T22:04:00.344Z,99.90
2023-04-15T22:06:31.622Z,99.90
2023-04-15T22:09:00.115Z,99.90
2023-04-15T22:11:33.210Z,99.90
2023-04-15T22:14:01.056Z,99.90
2023-04-15T22:16:29.375Z,99.90
2023-04-15T22:18:56.748Z,99.90
2023-04-15T22:21:24.228Z,99.90
2023-04-15T22:24:33.923Z,99.90
2023-04-15T22:26:40.987Z,99.90
2023-04-15T22:29:08.515Z,99.90
2023-04-15T22:31:35.823Z,99.90
2023-04-15T22:34:03.330Z,99.90
2023-04-15T22:36:31.591Z,99.90
2023-04-15T22:38:58.872Z,99.90
2023-04-15T22:41:26.290Z,99.90
2023-04-15T22:43:53.615Z,99.90
2023-04-15T22:46:20.852Z,99.90
2023-04-15T22:48:48.416Z,99.90
2023-04-15T22:51:22.676Z,99.90
2023-04-15T22:53:50.891Z,99.90
2023-04-15T22:56:22.813Z,99.90
2023-04-15T22:58:50.650Z,99.90
2023-04-15T23:01:18.393Z,99.90
2023-04-15T23:03:57.202Z,99.90
2023-04-15T23:06:33.020Z,99.90
2023-04-15T23:09:00.424Z,99.90
2023-04-15T23:11:29.855Z,99.90
2023-04-15T23:13:57.280Z,99.90
2023-04-15T23:16:24.508Z,99.90
2023-04-15T23:18:51.892Z,99.90
2023-04-15T23:21:18.953Z,99.90
2023-04-15T23:23:46.312Z,99.90
2023-04-15T23:26:13.420Z,99.90
2023-04-15T23:28:40.903Z,99.90
2023-04-15T23:31:08.143Z,99.90
2023-04-15T23:33:35.675Z,99.90
2023-04-15T23:36:02.858Z,99.90
2023-04-15T23:38:30.136Z,99.90
2023-04-15T23:40:57.494Z,99.90
2023-04-15T23:43:24.920Z,99.90
2023-04-15T23:45:52.079Z,99.90
2023-04-15T23:48:19.412Z,99.90
2023-04-15T23:50:46.626Z,99.90
2023-04-15T23:53:13.880Z,99.90
2023-04-15T23:55:40.997Z,99.90
2023-04-15T23:58:08.331Z,99.90
